Salten — LMFM — position and weather

sailwx.info

Track history (hours):
 
Tides and Currents Weather Stations Pressure Air Temp Water Temp Dewpoint Dewpoint Depression Visibility Wind Speed Wind Dir Waves Ship Positions

Salten

Last reported at 2016-May-05 08:34 UTC. Time now 2016-May-05 08:40 UTC.
Position N 66°55' E 013°30'.

Length 41 m; draft 2 m.

Type: High speed craft. MMSI: 259387000.

Date/timePositionNaut miles runAvg speedWind from/ knotsBaromVisibWave heightAir tempDewpointWater temp
2016-May-05 08:34N 66°55' E 013°30'2713.6
2016-May-05 06:33N 66°31' E 013°00'8 0.7
2016-May-04 18:24N 66°24' E 012°49'3512.1
2016-May-04 15:29N 66°55' E 013°30'1819.6
2016-May-04 14:33N 67°08' E 014°02'1212.2
2016-May-04 13:34N 67°17' E 014°23'0 0.4
2016-May-04 12:33N 67°17' E 014°22'0 0.0
2016-May-04 11:33N 67°17' E 014°22'0 0.0
2016-May-04 10:33N 67°17' E 014°22'0 0.0
2016-May-04 09:33N 67°17' E 014°22'0 0.0
2016-May-04 08:33N 67°17' E 014°22'1110.6
2016-May-04 07:33N 67°27' E 014°34'3 0.2
2016-May-03 15:34N 67°24' E 014°30'7 7.2
2016-May-03 14:33N 67°17' E 014°22'0 0.0
2016-May-03 13:33N 67°17' E 014°22'0 0.0
2016-May-03 12:33N 67°17' E 014°22'0 0.0
2016-May-03 11:33N 67°17' E 014°22'0 0.0
2016-May-03 10:33N 67°17' E 014°22'9 9.2
2016-May-03 09:34N 67°11' E 014°05'4715.6
2016-May-03 06:31N 66°31' E 012°60'10 0.9
2016-May-02 18:33N 66°21' E 012°60'1010.0
2016-May-02 17:33N 66°31' E 013°00'2712.6
2016-May-02 15:26N 66°54' E 013°34'1517.5
2016-May-02 14:33N 67°06' E 013°58'1515.0
2016-May-02 13:34N 67°17' E 014°23'0 0.5
2016-May-02 12:34N 67°17' E 014°22'0 0.0
2016-May-02 11:33N 67°17' E 014°22'0 0.0
2016-May-02 10:33N 67°17' E 014°22'8 8.1
2016-May-02 09:34N 67°11' E 014°07'4915.8
2016-May-02 06:29N 66°31' E 013°00'14 0.9
2016-May-01 15:25N 66°17' E 012°54'4013.3
2016-May-01 12:23N 66°55' E 013°30'1720.7
2016-May-01 11:34N 67°08' E 013°58'1312.9
2016-May-01 10:34N 67°17' E 014°22'0 0.0
2016-May-01 09:34N 67°17' E 014°22'0 0.0
2016-May-01 08:34N 67°17' E 014°22'0 0.0
2016-May-01 07:33N 67°17' E 014°22'0 0.0
2016-May-01 06:34N 67°17' E 014°22'0 0.0
2016-May-01 05:34N 67°17' E 014°22'0 0.0
2016-May-01 04:34N 67°17' E 014°22'0 0.0
2016-May-01 03:34N 67°17' E 014°22'0 0.0
2016-May-01 02:34N 67°17' E 014°22'0 0.0
2016-May-01 01:34N 67°17' E 014°22'0 0.0
2016-May-01 00:33N 67°17' E 014°22'0 0.0
2016-Apr-30 23:34N 67°17' E 014°22'0 0.0
2016-Apr-30 22:33N 67°17' E 014°22'0 0.0
2016-Apr-30 21:33N 67°17' E 014°22'0 0.0
2016-Apr-30 20:33N 67°17' E 014°22'0 0.0
2016-Apr-30 19:34N 67°17' E 014°22'0 0.0
2016-Apr-30 18:34N 67°17' E 014°22'0 0.0
2016-Apr-30 17:33N 67°17' E 014°22'0 0.0
2016-Apr-30 16:34N 67°17' E 014°22'0 0.0
2016-Apr-30 15:33N 67°17' E 014°22'0 0.0
2016-Apr-30 14:34N 67°17' E 014°22'0 0.0
2016-Apr-30 13:33N 67°17' E 014°22'0 0.0
2016-Apr-30 12:33N 67°17' E 014°22'0 0.0
2016-Apr-30 11:34N 67°17' E 014°22'0 0.0
2016-Apr-30 10:33N 67°17' E 014°22'0 0.0
2016-Apr-30 09:34N 67°17' E 014°22'1 0.5
2016-Apr-30 08:34N 67°17' E 014°23'9 9.2
2016-Apr-30 07:34N 67°25' E 014°35'5 0.3
2016-Apr-29 16:33N 67°30' E 014°38'1414.3
2016-Apr-29 15:33N 67°17' E 014°22'6 3.2
2016-Apr-29 13:33N 67°23' E 014°30'6 6.2
2016-Apr-29 12:33N 67°17' E 014°23'0 0.4
2016-Apr-29 11:33N 67°17' E 014°22'0 0.0
2016-Apr-29 10:33N 67°17' E 014°22'0 0.0
2016-Apr-29 09:33N 67°17' E 014°22'0 0.0
2016-Apr-29 08:33N 67°17' E 014°22'9 8.9
2016-Apr-29 07:34N 67°25' E 014°33'3 0.2
2016-Apr-28 15:34N 67°23' E 014°29'6 6.4
2016-Apr-28 14:33N 67°17' E 014°22'0 0.0
2016-Apr-28 13:33N 67°17' E 014°22'0 0.0
2016-Apr-28 12:33N 67°17' E 014°22'0 0.0
2016-Apr-28 11:33N 67°17' E 014°22'1 0.5
2016-Apr-28 10:33N 67°17' E 014°23'9 9.3
2016-Apr-28 09:34N 67°11' E 014°06'4815.8
2016-Apr-28 06:33N 66°31' E 012°58'14 1.2
2016-Apr-27 18:30N 66°18' E 012°54'4012.0
2016-Apr-27 15:10N 66°55' E 013°30'1524.3
2016-Apr-27 14:34N 67°06' E 013°56'1615.9
2016-Apr-27 13:34N 67°17' E 014°24'1 0.7
2016-Apr-27 12:34N 67°17' E 014°22'0 0.0
2016-Apr-27 11:34N 67°17' E 014°22'0 0.0
2016-Apr-27 10:34N 67°17' E 014°22'0 0.0
2016-Apr-27 09:33N 67°17' E 014°22'0 0.0
2016-Apr-27 08:34N 67°17' E 014°22'8 8.2
2016-Apr-27 07:34N 67°25' E 014°31'1 0.1
2016-Apr-26 15:34N 67°23' E 014°30'7 6.9
2016-Apr-26 14:33N 67°17' E 014°22'0 0.0
2016-Apr-26 13:33N 67°17' E 014°22'0 0.0
2016-Apr-26 12:33N 67°17' E 014°22'0 0.0
2016-Apr-26 11:33N 67°17' E 014°22'0 0.1
2016-Apr-26 10:33N 67°17' E 014°22'1212.2
2016-Apr-26 09:33N 67°08' E 013°60'4614.4
2016-Apr-26 06:20N 66°29' E 012°58'12 1.0
2016-Apr-25 18:31N 66°18' E 012°54'4212.2
2016-Apr-25 15:05N 66°57' E 013°29'1325.4
2016-Apr-25 14:34N 67°05' E 013°55'1616.4
2016-Apr-25 13:33N 67°17' E 014°24'1 0.7
2016-Apr-25 12:33N 67°17' E 014°22'0 0.0
2016-Apr-25 11:33N 67°17' E 014°22'0 0.0
2016-Apr-25 10:33N 67°17' E 014°22'7 7.4
2016-Apr-25 09:34N 67°12' E 014°08'  
Track history (hours):
 
Tides and Currents Weather Stations Pressure Air Temp Water Temp Dewpoint Dewpoint Depression Visibility Wind Speed Wind Dir Waves Ship Positions

Salten

Last reported at 2016-May-05 08:34 UTC. Time now 2016-May-05 08:40 UTC.
Position N 66°55' E 013°30'.

Length 41 m; draft 2 m.

Type: High speed craft. MMSI: 259387000.

Date/timePositionNaut miles runAvg speedWind from/ knotsBaromVisibWave heightAir tempDewpointWater temp
2016-May-05 08:34N 66°55' E 013°30'2713.6
2016-May-05 06:33N 66°31' E 013°00'8 0.7
2016-May-04 18:24N 66°24' E 012°49'3512.1
2016-May-04 15:29N 66°55' E 013°30'1819.6
2016-May-04 14:33N 67°08' E 014°02'1212.2
2016-May-04 13:34N 67°17' E 014°23'0 0.4
2016-May-04 12:33N 67°17' E 014°22'0 0.0
2016-May-04 11:33N 67°17' E 014°22'0 0.0
2016-May-04 10:33N 67°17' E 014°22'0 0.0
2016-May-04 09:33N 67°17' E 014°22'0 0.0
2016-May-04 08:33N 67°17' E 014°22'1110.6
2016-May-04 07:33N 67°27' E 014°34'3 0.2
2016-May-03 15:34N 67°24' E 014°30'7 7.2
2016-May-03 14:33N 67°17' E 014°22'0 0.0
2016-May-03 13:33N 67°17' E 014°22'0 0.0
2016-May-03 12:33N 67°17' E 014°22'0 0.0
2016-May-03 11:33N 67°17' E 014°22'0 0.0
2016-May-03 10:33N 67°17' E 014°22'9 9.2
2016-May-03 09:34N 67°11' E 014°05'4715.6
2016-May-03 06:31N 66°31' E 012°60'10 0.9
2016-May-02 18:33N 66°21' E 012°60'1010.0
2016-May-02 17:33N 66°31' E 013°00'2712.6
2016-May-02 15:26N 66°54' E 013°34'1517.5
2016-May-02 14:33N 67°06' E 013°58'1515.0
2016-May-02 13:34N 67°17' E 014°23'0 0.5
2016-May-02 12:34N 67°17' E 014°22'0 0.0
2016-May-02 11:33N 67°17' E 014°22'0 0.0
2016-May-02 10:33N 67°17' E 014°22'8 8.1
2016-May-02 09:34N 67°11' E 014°07'4915.8
2016-May-02 06:29N 66°31' E 013°00'14 0.9
2016-May-01 15:25N 66°17' E 012°54'4013.3
2016-May-01 12:23N 66°55' E 013°30'1720.7
2016-May-01 11:34N 67°08' E 013°58'1312.9
2016-May-01 10:34N 67°17' E 014°22'0 0.0
2016-May-01 09:34N 67°17' E 014°22'0 0.0
2016-May-01 08:34N 67°17' E 014°22'0 0.0
2016-May-01 07:33N 67°17' E 014°22'0 0.0
2016-May-01 06:34N 67°17' E 014°22'0 0.0
2016-May-01 05:34N 67°17' E 014°22'0 0.0
2016-May-01 04:34N 67°17' E 014°22'0 0.0
2016-May-01 03:34N 67°17' E 014°22'0 0.0
2016-May-01 02:34N 67°17' E 014°22'0 0.0
2016-May-01 01:34N 67°17' E 014°22'0 0.0
2016-May-01 00:33N 67°17' E 014°22'0 0.0
2016-Apr-30 23:34N 67°17' E 014°22'0 0.0
2016-Apr-30 22:33N 67°17' E 014°22'0 0.0
2016-Apr-30 21:33N 67°17' E 014°22'0 0.0
2016-Apr-30 20:33N 67°17' E 014°22'0 0.0
2016-Apr-30 19:34N 67°17' E 014°22'0 0.0
2016-Apr-30 18:34N 67°17' E 014°22'0 0.0
2016-Apr-30 17:33N 67°17' E 014°22'0 0.0
2016-Apr-30 16:34N 67°17' E 014°22'0 0.0
2016-Apr-30 15:33N 67°17' E 014°22'0 0.0
2016-Apr-30 14:34N 67°17' E 014°22'0 0.0
2016-Apr-30 13:33N 67°17' E 014°22'0 0.0
2016-Apr-30 12:33N 67°17' E 014°22'0 0.0
2016-Apr-30 11:34N 67°17' E 014°22'0 0.0
2016-Apr-30 10:33N 67°17' E 014°22'0 0.0
2016-Apr-30 09:34N 67°17' E 014°22'1 0.5
2016-Apr-30 08:34N 67°17' E 014°23'9 9.2
2016-Apr-30 07:34N 67°25' E 014°35'5 0.3
2016-Apr-29 16:33N 67°30' E 014°38'1414.3
2016-Apr-29 15:33N 67°17' E 014°22'6 3.2
2016-Apr-29 13:33N 67°23' E 014°30'6 6.2
2016-Apr-29 12:33N 67°17' E 014°23'0 0.4
2016-Apr-29 11:33N 67°17' E 014°22'0 0.0
2016-Apr-29 10:33N 67°17' E 014°22'0 0.0
2016-Apr-29 09:33N 67°17' E 014°22'0 0.0
2016-Apr-29 08:33N 67°17' E 014°22'9 8.9
2016-Apr-29 07:34N 67°25' E 014°33'3 0.2
2016-Apr-28 15:34N 67°23' E 014°29'6 6.4
2016-Apr-28 14:33N 67°17' E 014°22'0 0.0
2016-Apr-28 13:33N 67°17' E 014°22'0 0.0
2016-Apr-28 12:33N 67°17' E 014°22'0 0.0
2016-Apr-28 11:33N 67°17' E 014°22'1 0.5
2016-Apr-28 10:33N 67°17' E 014°23'9 9.3
2016-Apr-28 09:34N 67°11' E 014°06'4815.8
2016-Apr-28 06:33N 66°31' E 012°58'14 1.2
2016-Apr-27 18:30N 66°18' E 012°54'4012.0
2016-Apr-27 15:10N 66°55' E 013°30'1524.3
2016-Apr-27 14:34N 67°06' E 013°56'1615.9
2016-Apr-27 13:34N 67°17' E 014°24'1 0.7
2016-Apr-27 12:34N 67°17' E 014°22'0 0.0
2016-Apr-27 11:34N 67°17' E 014°22'0 0.0
2016-Apr-27 10:34N 67°17' E 014°22'0 0.0
2016-Apr-27 09:33N 67°17' E 014°22'0 0.0
2016-Apr-27 08:34N 67°17' E 014°22'8 8.2
2016-Apr-27 07:34N 67°25' E 014°31'1 0.1
2016-Apr-26 15:34N 67°23' E 014°30'7 6.9
2016-Apr-26 14:33N 67°17' E 014°22'0 0.0
2016-Apr-26 13:33N 67°17' E 014°22'0 0.0
2016-Apr-26 12:33N 67°17' E 014°22'0 0.0
2016-Apr-26 11:33N 67°17' E 014°22'0 0.1
2016-Apr-26 10:33N 67°17' E 014°22'1212.2
2016-Apr-26 09:33N 67°08' E 013°60'4614.4
2016-Apr-26 06:20N 66°29' E 012°58'12 1.0
2016-Apr-25 18:31N 66°18' E 012°54'4212.2
2016-Apr-25 15:05N 66°57' E 013°29'1325.4
2016-Apr-25 14:34N 67°05' E 013°55'1616.4
2016-Apr-25 13:33N 67°17' E 014°24'1 0.7
2016-Apr-25 12:33N 67°17' E 014°22'0 0.0
2016-Apr-25 11:33N 67°17' E 014°22'0 0.0
2016-Apr-25 10:33N 67°17' E 014°22'7 7.4
2016-Apr-25 09:34N 67°12' E 014°08'  

Dump ship's entire track history